Time;durP1;ratioP1;P1;durP2;ratioP2;P2;SDS_P1;SDS_P2;PMS_P1;PMS_P2;Temp;Humidity;BMP_temperature;BMP_pressure;BME280_temperature;BME280_humidity;BME280_pressure;Samples;Min_cycle;Max_cycle;Signal;HPM_P1;HPM_P2
2023/03/28 00:02:22;;;;;;;;;;;;;;;-0.64;97.23;102743.03;5071846;28;19920;-49
2023/03/28 00:04:48;;;;;;;;;;;;;;;-0.65;97.05;102743.78;5054247;28;19981;-47
2023/03/28 00:07:14;;;;;;;;;;;;;;;-0.68;97.33;102740.91;5081558;28;19920;-46
2023/03/28 00:09:39;;;;;;;;;;;;;;;-0.69;97.26;102740.03;5068897;28;20390;-47
2023/03/28 00:12:04;;;;;;;;;;;;;;;-0.72;97.59;102739.72;5072729;28;19966;-48
2023/03/28 00:14:29;;;;;;;;;;;;;;;-0.74;97.64;102738.66;5069954;28;19962;-50
2023/03/28 00:16:56;;;;;;;;;;;;;;;-0.76;98.41;102747.72;5074467;28;20373;-47
2023/03/28 00:19:21;;;;;;;;;;;;;;;-0.74;100.00;102742.81;5073074;28;20721;-46
2023/03/28 00:21:48;;;;;;;;;;;;;;;-0.72;100.00;102746.41;5075801;28;19970;-46
2023/03/28 00:24:14;;;;;;;;;;;;;;;-0.73;99.68;102739.53;5075617;28;20363;-47
2023/03/28 00:26:41;;;;;;;;;;;;;;;-0.76;99.76;102745.19;5076561;28;19962;-47
2023/03/28 00:29:10;;;;;;;;;;;;;;;-0.75;100.00;102741.91;5073684;28;19951;-48
2023/03/28 00:31:38;;;;;;;;;;;;;;;-0.77;98.95;102737.47;5074230;28;19962;-46
2023/03/28 00:34:04;;;;;;;;;;;;;;;-0.84;98.56;102736.81;5079658;28;20275;-47
2023/03/28 00:36:31;;;;;;;;;;;;;;;-0.89;98.81;102737.97;5056697;28;20496;-46
2023/03/28 00:39:00;;;;;;;;;;;;;;;-0.91;98.87;102742.00;5083359;28;20677;-47
2023/03/28 00:41:29;;;;;;;;;;;;;;;-0.94;98.96;102746.69;5083031;28;19912;-42
2023/03/28 00:43:55;;;;;;;;;;;;;;;-0.99;98.78;102745.31;5077645;28;19908;-42
2023/03/28 00:46:21;;;;;;;;;;;;;;;-1.04;98.70;102743.06;5071086;28;19959;-41
2023/03/28 00:48:51;;;;;;;;;;;;;;;-1.09;98.76;102746.03;5072167;28;20099;-42
2023/03/28 00:51:18;;;;;;;;;;;;;;;-1.14;98.87;102746.28;5074599;28;19916;-42
2023/03/28 00:53:43;;;;;;;;;;;;;;;-1.19;99.42;102745.78;5068619;28;19966;-42
2023/03/28 00:56:11;;;;;;;;;;;;;;;-1.18;99.50;102751.72;5073124;28;19971;-42
2023/03/28 00:58:40;;;;;;;;;;;;;;;-1.20;99.76;102749.03;5071419;28;19946;-42
2023/03/28 01:01:06;;;;;;;;;;;;;;;-1.22;99.50;102749.59;5069819;28;19912;-42
2023/03/28 01:03:33;;;;;;;;;;;;;;;-1.25;99.29;102747.66;5070778;28;20287;-42
2023/03/28 01:06:00;;;;;;;;;;;;;;;-1.27;99.52;102754.19;5069790;28;20631;-42
2023/03/28 01:08:28;;;;;;;;;;;;;;;-1.28;99.62;102748.94;5070611;28;20390;-42
2023/03/28 01:10:54;;;;;;;;;;;;;;;-1.32;99.65;102746.84;5072500;28;19916;-42
2023/03/28 01:13:24;;;;;;;;;;;;;;;-1.32;100.00;102746.84;5070345;28;19939;-42
2023/03/28 01:15:50;;;;;;;;;;;;;;;-1.32;100.00;102746.84;5070211;28;20386;-42
2023/03/28 01:18:17;;;;;;;;;;;;;;;-1.32;100.00;102744.34;5069261;28;20006;-42
2023/03/28 01:20:45;;;;;;;;;;;;;;;-1.35;100.00;102743.25;5070080;28;19999;-43
2023/03/28 01:23:19;;;;;;;;;;;;;;;-1.33;100.00;102740.00;5070118;28;20332;-42
2023/03/28 01:26:02;;;;;;;;;;;;;;;-1.34;100.00;102734.06;5069842;28;19978;-41
2023/03/28 01:28:45;;;;;;;;;;;;;;;-1.30;100.00;102730.25;5067195;28;19932;-41
2023/03/28 01:31:13;;;;;;;;;;;;;;;-1.31;100.00;102723.41;5073495;28;19965;-42
2023/03/28 01:33:49;;;;;;;;;;;;;;;-1.32;100.00;102730.09;5068981;28;19919;-42
2023/03/28 01:36:17;;;;;;;;;;;;;;;-1.31;100.00;102723.41;5070690;28;19916;-41
2023/03/28 01:38:42;;;;;;;;;;;;;;;-1.31;100.00;102736.03;5069525;28;20329;-42
2023/03/28 01:41:34;;;;;;;;;;;;;;;-1.32;100.00;102731.72;5072808;28;20414;-42
2023/03/28 01:44:08;;;;;;;;;;;;;;;-1.39;100.00;102726.03;5043147;28;19927;-42
2023/03/28 01:46:41;;;;;;;;;;;;;;;-1.41;100.00;102727.47;5052827;28;20346;-42
2023/03/28 01:49:09;;;;;;;;;;;;;;;-1.39;100.00;102723.50;5069005;28;19958;-42
2023/03/28 01:51:57;;;;;;;;;;;;;;;-1.42;100.00;102719.75;5070822;28;19931;-42
2023/03/28 01:54:22;;;;;;;;;;;;;;;-1.44;100.00;102723.75;5079270;28;19912;-41
2023/03/28 01:56:52;;;;;;;;;;;;;;;-1.46;100.00;102720.16;5073871;28;19919;-41
2023/03/28 01:59:18;;;;;;;;;;;;;;;-1.46;100.00;102710.06;5072638;28;19919;-42
2023/03/28 02:01:54;;;;;;;;;;;;;;;-1.48;100.00;102717.47;5073583;28;19916;-41
2023/03/28 02:04:22;;;;;;;;;;;;;;;-1.48;100.00;102721.63;5074965;28;19911;-41
2023/03/28 02:06:49;;;;;;;;;;;;;;;-1.50;100.00;102721.47;5073669;28;19982;-42
2023/03/28 02:09:15;;;;;;;;;;;;;;;-1.50;100.00;102725.63;5077229;28;19916;-42
2023/03/28 02:11:41;;;;;;;;;;;;;;;-1.51;100.00;102723.84;5072279;28;19916;-43
2023/03/28 02:14:14;;;;;;;;;;;;;;;-1.51;100.00;102722.22;5076826;28;19935;-42
2023/03/28 02:16:40;;;;;;;;;;;;;;;-1.52;100.00;102727.06;5071142;28;20286;-42
2023/03/28 02:19:07;;;;;;;;;;;;;;;-1.52;100.00;102719.50;5073070;28;19935;-42
2023/03/28 02:21:43;;;;;;;;;;;;;;;-1.56;100.00;102723.34;5077862;28;19917;-42
2023/03/28 02:24:10;;;;;;;;;;;;;;;-1.59;100.00;102717.97;5079697;28;19912;-42
2023/03/28 02:26:36;;;;;;;;;;;;;;;-1.60;100.00;102718.69;5075316;28;20809;-42
2023/03/28 02:29:01;;;;;;;;;;;;;;;-1.63;100.00;102714.22;5073402;28;19917;-42
2023/03/28 02:31:27;;;;;;;;;;;;;;;-1.65;100.00;102714.78;5073347;28;19916;-42
2023/03/28 02:33:52;;;;;;;;;;;;;;;-1.68;100.00;102714.47;5073818;28;19985;-42
2023/03/28 02:36:21;;;;;;;;;;;;;;;-1.69;100.00;102713.59;5076587;28;20013;-41
2023/03/28 02:38:53;;;;;;;;;;;;;;;-1.71;100.00;102714.13;5072319;28;20329;-42
2023/03/28 02:41:37;;;;;;;;;;;;;;;-1.74;100.00;102714.72;5078392;28;20363;-43
2023/03/28 02:44:06;;;;;;;;;;;;;;;-1.77;100.00;102716.91;5074600;28;19995;-41
2023/03/28 02:47:06;;;;;;;;;;;;;;;-1.77;100.00;102716.00;5078146;28;19925;-42
2023/03/28 02:49:32;;;;;;;;;;;;;;;-1.79;100.00;102718.38;5001114;28;19918;-42
2023/03/28 02:52:09;;;;;;;;;;;;;;;-1.78;100.00;102715.09;5053914;28;19954;-42
2023/03/28 02:54:34;;;;;;;;;;;;;;;-1.80;100.00;102713.16;5074642;28;20255;-41
2023/03/28 02:57:09;;;;;;;;;;;;;;;-1.78;100.00;102716.75;5078763;28;19957;-42
2023/03/28 02:59:34;;;;;;;;;;;;;;;-1.80;100.00;102713.16;5075786;28;19916;-41
2023/03/28 03:02:01;;;;;;;;;;;;;;;-1.81;100.00;102714.78;5077481;28;19912;-43
2023/03/28 03:04:26;;;;;;;;;;;;;;;-1.83;100.00;102706.16;5080553;28;20010;-41
2023/03/28 03:06:51;;;;;;;;;;;;;;;-1.81;100.00;102706.34;5075025;28;20023;-41
2023/03/28 03:09:17;;;;;;;;;;;;;;;-1.83;100.00;102703.63;5075973;28;20375;-42
2023/03/28 03:11:42;;;;;;;;;;;;;;;-1.85;100.00;102701.69;5071216;28;19966;-42
2023/03/28 03:14:08;;;;;;;;;;;;;;;-1.87;100.00;102701.53;5056935;28;19920;-41
2023/03/28 03:16:33;;;;;;;;;;;;;;;-1.84;100.00;102706.00;5077669;28;19912;-47
2023/03/28 03:18:58;;;;;;;;;;;;;;;-1.83;100.00;102703.63;5056198;28;19916;-47
2023/03/28 03:21:24;;;;;;;;;;;;;;;-1.82;100.00;102702.94;5079949;28;19931;-47
2023/03/28 03:23:50;;;;;;;;;;;;;;;-1.84;100.00;102711.94;5075744;28;19920;-46
2023/03/28 03:26:16;;;;;;;;;;;;;;;-1.85;100.00;102710.16;5074602;28;19944;-46
2023/03/28 03:28:41;;;;;;;;;;;;;;;-1.83;100.00;102710.31;5072068;28;20672;-47
2023/03/28 03:31:07;;;;;;;;;;;;;;;-1.83;100.00;102711.19;5073388;28;20363;-48
2023/03/28 03:33:32;;;;;;;;;;;;;;;-1.82;100.00;102705.44;5071238;28;19931;-47
2023/03/28 03:35:57;;;;;;;;;;;;;;;-1.84;100.00;102713.56;5071761;28;19920;-47
2023/03/28 03:38:22;;;;;;;;;;;;;;;-1.90;100.00;102712.16;5074124;28;20080;-47
2023/03/28 03:40:48;;;;;;;;;;;;;;;-1.94;100.00;102720.16;5076116;28;19916;-49
2023/03/28 03:43:13;;;;;;;;;;;;;;;-1.96;100.00;102710.63;5071921;28;19920;-47
2023/03/28 03:45:39;;;;;;;;;;;;;;;-1.99;100.00;102710.31;5070608;28;19951;-46
2023/03/28 03:48:04;;;;;;;;;;;;;;;-2.02;100.00;102713.38;5076303;28;19963;-47
2023/03/28 03:50:30;;;;;;;;;;;;;;;-2.04;100.00;102714.84;5072766;28;19920;-47
2023/03/28 03:52:56;;;;;;;;;;;;;;;-2.06;100.00;102713.78;5073256;28;19923;-48
2023/03/28 03:55:21;;;;;;;;;;;;;;;-2.08;100.00;102709.31;5078269;28;20366;-50
2023/03/28 03:57:46;;;;;;;;;;;;;;;-2.06;100.00;102710.34;5060538;28;19924;-46
2023/03/28 04:00:12;;;;;;;;;;;;;;;-2.04;100.00;102712.31;5075631;28;19969;-50
2023/03/28 04:02:38;;;;;;;;;;;;;;;-1.97;100.00;102708.84;5072754;28;20374;-41
2023/03/28 04:05:04;;;;;;;;;;;;;;;-1.96;100.00;102710.63;5070407;28;19912;-42
2023/03/28 04:07:29;;;;;;;;;;;;;;;-1.97;100.00;102703.78;5074150;28;19924;-41
2023/03/28 04:09:55;;;;;;;;;;;;;;;-1.95;100.00;102703.22;5072318;28;20524;-41
2023/03/28 04:12:21;;;;;;;;;;;;;;;-1.94;100.00;102707.56;5077438;28;19988;-42
2023/03/28 04:14:46;;;;;;;;;;;;;;;-1.93;100.00;102709.34;5054525;28;19926;-42
2023/03/28 04:17:12;;;;;;;;;;;;;;;-1.94;100.00;102709.19;5074886;28;20000;-42
2023/03/28 04:19:38;;;;;;;;;;;;;;;-1.97;100.00;102714.78;5069959;28;19927;-41
2023/03/28 04:22:06;;;;;;;;;;;;;;;-2.00;100.00;102706.91;5069309;28;20375;-42
2023/03/28 04:24:32;;;;;;;;;;;;;;;-2.00;100.00;102705.97;5070929;28;19912;-42
2023/03/28 04:26:57;;;;;;;;;;;;;;;-1.99;100.00;102702.75;5058053;28;20022;-42
2023/03/28 04:29:29;;;;;;;;;;;;;;;-2.00;100.00;102698.41;5072186;28;20362;-43
2023/03/28 04:31:55;;;;;;;;;;;;;;;-2.03;100.00;102704.03;5072518;28;19928;-42
2023/03/28 04:34:24;;;;;;;;;;;;;;;-2.03;100.00;102704.03;5074210;28;20375;-42
2023/03/28 04:36:49;;;;;;;;;;;;;;;-2.04;100.00;102697.19;5074796;28;19920;-42
2023/03/28 04:39:15;;;;;;;;;;;;;;;-2.04;100.00;102696.31;5075739;28;21136;-42
2023/03/28 04:41:40;;;;;;;;;;;;;;;-2.05;100.00;102699.56;5053882;28;19919;-42
2023/03/28 04:44:05;;;;;;;;;;;;;;;-2.10;100.00;102695.66;5072673;28;19917;-41
2023/03/28 04:46:30;;;;;;;;;;;;;;;-2.11;100.00;102696.38;5073359;28;20363;-42
2023/03/28 04:48:56;;;;;;;;;;;;;;;-2.09;100.00;102697.44;5076609;28;20416;-42
2023/03/28 04:51:21;;;;;;;;;;;;;;;-2.07;100.00;102698.47;5072400;28;19928;-41
2023/03/28 04:53:46;;;;;;;;;;;;;;;-2.07;100.00;102696.84;5075814;28;19935;-41
2023/03/28 04:56:14;;;;;;;;;;;;;;;-2.07;100.00;102698.47;5062340;28;19912;-41
2023/03/28 04:58:40;;;;;;;;;;;;;;;-2.07;100.00;102701.00;5075003;28;19927;-42
2023/03/28 05:01:09;;;;;;;;;;;;;;;-2.07;100.00;102701.00;5075365;28;19916;-41
2023/03/28 05:03:34;;;;;;;;;;;;;;;-2.09;100.00;102698.31;5067983;28;19919;-41
2023/03/28 05:05:59;;;;;;;;;;;;;;;-2.07;100.00;102708.56;5071220;28;19916;-42
2023/03/28 05:08:26;;;;;;;;;;;;;;;-2.04;100.00;102708.91;5069265;28;20455;-42
2023/03/28 05:10:52;;;;;;;;;;;;;;;-2.04;100.00;102703.88;5054984;28;19927;-45
2023/03/28 05:13:17;;;;;;;;;;;;;;;-1.98;100.00;102718.03;5067383;28;19920;-43
2023/03/28 05:15:43;;;;;;;;;;;;;;;-1.90;100.00;102721.34;5069532;28;19925;-44
2023/03/28 05:18:08;;;;;;;;;;;;;;;-1.82;100.00;102719.66;5051698;28;19942;-45
2023/03/28 05:20:34;;;;;;;;;;;;;;;-1.75;100.00;102725.53;5070690;28;20471;-43
2023/03/28 05:23:00;;;;;;;;;;;;;;;-1.73;100.00;102726.59;5072486;28;20392;-44
2023/03/28 05:25:26;;;;;;;;;;;;;;;-1.71;100.00;102720.06;5072391;28;20443;-44
2023/03/28 05:27:51;;;;;;;;;;;;;;;-1.69;100.00;102720.25;5076104;28;20015;-44
2023/03/28 05:30:17;;;;;;;;;;;;;;;-1.68;100.00;102719.53;5077384;28;19924;-44
2023/03/28 05:32:42;;;;;;;;;;;;;;;-1.66;100.00;102721.47;5073699;28;20022;-45
2023/03/28 05:35:08;;;;;;;;;;;;;;;-1.64;100.00;102729.19;5079141;28;20332;-44
2023/03/28 05:37:34;;;;;;;;;;;;;;;-1.62;100.00;102730.25;5078696;28;19919;-43
2023/03/28 05:40:00;;;;;;;;;;;;;;;-1.59;100.00;102729.69;5057155;28;20019;-44
2023/03/28 05:42:25;;;;;;;;;;;;;;;-1.57;100.00;102733.28;5079598;28;19919;-44
2023/03/28 05:44:50;;;;;;;;;;;;;;;-1.55;100.00;102730.19;5072868;28;20362;-45
2023/03/28 05:47:16;;;;;;;;;;;;;;;-1.51;100.00;102733.94;5074369;28;19928;-44
2023/03/28 05:49:41;;;;;;;;;;;;;;;-1.48;100.00;102727.56;5075281;28;19966;-45
2023/03/28 05:52:06;;;;;;;;;;;;;;;-1.41;100.00;102739.19;5079344;28;19959;-42
2023/03/28 05:54:32;;;;;;;;;;;;;;;-1.40;100.00;102734.31;5074710;28;19958;-45
2023/03/28 05:56:57;;;;;;;;;;;;;;;-1.36;100.00;102725.44;5081071;28;20401;-44
2023/03/28 05:59:23;;;;;;;;;;;;;;;-1.28;100.00;102729.66;5078288;28;19920;-45
2023/03/28 06:01:51;;;;;;;;;;;;;;;-1.22;100.00;102725.25;5080379;28;19918;-44
2023/03/28 06:04:16;;;;;;;;;;;;;;;-1.17;100.00;102729.16;5076144;28;19932;-44
2023/03/28 06:06:41;;;;;;;;;;;;;;;-1.08;100.00;102727.59;5076222;28;19942;-44
2023/03/28 06:09:07;;;;;;;;;;;;;;;-0.78;100.00;102723.94;5072713;28;19920;-45
2023/03/28 06:11:32;;;;;;;;;;;;;;;-0.35;100.00;102729.22;5071329;28;19916;-45
2023/03/28 06:13:57;;;;;;;;;;;;;;;0.11;100.00;102720.28;5074677;28;19920;-43
2023/03/28 06:16:23;;;;;;;;;;;;;;;0.50;100.00;102723.34;5073622;28;20349;-44
2023/03/28 06:18:48;;;;;;;;;;;;;;;0.84;100.00;102722.41;5072286;28;19919;-44
2023/03/28 06:21:14;;;;;;;;;;;;;;;1.16;100.00;102717.94;5055704;28;19924;-43
2023/03/28 06:23:39;;;;;;;;;;;;;;;1.42;100.00;102716.97;5074231;28;20359;-46
2023/03/28 06:26:05;;;;;;;;;;;;;;;1.58;100.00;102717.66;5074169;28;20374;-45
2023/03/28 06:28:30;;;;;;;;;;;;;;;1.73;99.49;102723.25;5069531;28;19916;-47
2023/03/28 06:30:56;;;;;;;;;;;;;;;1.95;99.00;102721.97;5076445;28;19916;-44
2023/03/28 06:33:21;;;;;;;;;;;;;;;2.18;97.69;102728.22;5074574;28;19916;-44
2023/03/28 06:35:46;;;;;;;;;;;;;;;2.27;96.82;102727.44;5073328;28;19927;-45
2023/03/28 06:38:11;;;;;;;;;;;;;;;2.35;96.16;102733.22;5072334;28;20370;-44
2023/03/28 06:40:37;;;;;;;;;;;;;;;2.39;96.48;102725.13;5073514;28;19917;-44
2023/03/28 06:43:02;;;;;;;;;;;;;;;2.40;96.68;102735.41;5076153;28;19989;-44
2023/03/28 06:45:27;;;;;;;;;;;;;;;2.21;96.43;102737.03;5071202;28;20290;-44
2023/03/28 06:47:52;;;;;;;;;;;;;;;1.97;96.02;102735.69;5071253;28;19928;-44
2023/03/28 06:50:18;;;;;;;;;;;;;;;1.88;97.08;102730.66;5077343;28;19920;-45
2023/03/28 06:52:44;;;;;;;;;;;;;;;1.77;96.90;102735.47;5069662;28;19946;-44
2023/03/28 06:55:10;;;;;;;;;;;;;;;1.69;96.96;102734.75;5070711;28;19942;-45
2023/03/28 06:57:35;;;;;;;;;;;;;;;1.58;97.14;102738.84;5073757;28;20720;-45
2023/03/28 07:00:00;;;;;;;;;;;;;;;1.55;97.71;102738.53;5072508;28;20337;-43
2023/03/28 07:02:25;;;;;;;;;;;;;;;1.57;98.30;102737.03;5055338;28;19916;-44
2023/03/28 07:04:51;;;;;;;;;;;;;;;1.61;97.85;102731.50;5073762;28;19949;-44
2023/03/28 07:07:16;;;;;;;;;;;;;;;1.70;98.00;102735.63;5072370;28;20406;-47
2023/03/28 07:09:41;;;;;;;;;;;;;;;1.85;98.19;102742.16;5071407;28;20001;-43
2023/03/28 07:12:07;;;;;;;;;;;;;;;2.01;97.15;102750.44;5072445;28;19928;-43
2023/03/28 07:14:32;;;;;;;;;;;;;;;2.13;96.43;102748.13;5071962;28;19983;-43
2023/03/28 07:16:57;;;;;;;;;;;;;;;2.18;96.23;102740.94;5054450;28;20333;-43
2023/03/28 07:19:23;;;;;;;;;;;;;;;2.29;96.39;102747.88;5071223;28;20509;-43
2023/03/28 07:21:48;;;;;;;;;;;;;;;2.33;95.23;102749.97;5074241;28;19927;-42
2023/03/28 07:24:14;;;;;;;;;;;;;;;2.41;95.78;102746.47;5073910;28;19919;-43
2023/03/28 07:26:39;;;;;;;;;;;;;;;2.50;95.16;102744.78;5069910;28;19917;-44
2023/03/28 07:29:05;;;;;;;;;;;;;;;2.56;96.24;102742.78;5076308;28;19940;-43
2023/03/28 07:31:30;;;;;;;;;;;;;;;2.64;95.35;102751.09;5072323;28;19946;-43
2023/03/28 07:33:56;;;;;;;;;;;;;;;2.75;95.14;102749.50;5069181;28;19924;-44
2023/03/28 07:36:22;;;;;;;;;;;;;;;2.89;95.37;102747.44;5074187;28;19942;-43
2023/03/28 07:38:48;;;;;;;;;;;;;;;3.06;94.73;102750.59;5073809;28;19916;-43
2023/03/28 07:41:13;;;;;;;;;;;;;;;3.20;95.10;102752.69;5078829;28;19908;-43
2023/03/28 07:43:38;;;;;;;;;;;;;;;3.35;94.29;102756.56;5069331;28;19916;-42
2023/03/28 07:46:14;;;;;;;;;;;;;;;3.51;93.60;102753.69;5055163;28;20572;-42
2023/03/28 07:48:40;;;;;;;;;;;;;;;3.66;93.76;102749.06;5069558;28;19921;-43
2023/03/28 07:51:06;;;;;;;;;;;;;;;3.76;91.65;102752.53;5071605;28;20686;-43
2023/03/28 07:53:32;;;;;;;;;;;;;;;3.90;92.72;102756.22;5077302;28;20285;-44
2023/03/28 07:55:57;;;;;;;;;;;;;;;4.07;92.62;102744.94;5075260;28;20083;-43
2023/03/28 07:58:22;;;;;;;;;;;;;;;4.17;90.23;102746.59;5075275;28;19941;-44
2023/03/28 08:00:47;;;;;;;;;;;;;;;4.29;90.41;102743.41;5073776;28;20350;-48
2023/03/28 08:03:13;;;;;;;;;;;;;;;4.43;89.70;102743.66;5081424;28;19916;-50
2023/03/28 08:05:39;;;;;;;;;;;;;;;4.54;89.34;102750.53;5079067;28;19916;-50
2023/03/28 08:08:04;;;;;;;;;;;;;;;4.63;89.48;102753.84;5072831;28;19912;-48
2023/03/28 08:10:30;;;;;;;;;;;;;;;4.76;89.87;102748.97;5071388;28;19916;-48
2023/03/28 08:12:55;;;;;;;;;;;;;;;4.97;88.51;102748.91;5075487;28;19912;-49
2023/03/28 08:15:21;;;;;;;;;;;;;;;5.13;86.48;102745.97;5072723;28;20362;-47
2023/03/28 08:17:46;;;;;;;;;;;;;;;5.27;88.14;102746.28;5072196;28;19912;-49
2023/03/28 08:20:11;;;;;;;;;;;;;;;5.35;85.17;102744.34;5055720;28;19962;-50
2023/03/28 08:22:37;;;;;;;;;;;;;;;5.45;87.77;102751.06;5056994;28;19919;-47
2023/03/28 08:25:02;;;;;;;;;;;;;;;5.45;86.19;102751.94;5077168;28;19917;-48
2023/03/28 08:27:28;;;;;;;;;;;;;;;5.49;87.04;102748.88;5071746;28;20027;-51
2023/03/28 08:29:53;;;;;;;;;;;;;;;5.45;82.17;102756.16;5078263;28;19920;-48
2023/03/28 08:32:18;;;;;;;;;;;;;;;5.38;81.74;102748.00;5072523;28;20397;-47
2023/03/28 08:34:44;;;;;;;;;;;;;;;5.37;83.18;102741.13;5071941;28;20294;-47
2023/03/28 08:37:09;;;;;;;;;;;;;;;5.45;85.01;102741.72;5077450;28;19955;-48
2023/03/28 08:39:36;;;;;;;;;;;;;;;5.55;83.21;102746.78;5056560;28;20386;-48
2023/03/28 08:42:08;;;;;;;;;;;;;;;5.64;81.93;102733.84;5082925;28;20339;-46
2023/03/28 08:44:36;;;;;;;;;;;;;;;5.74;80.41;102740.56;5073363;28;19908;-45
2023/03/28 08:47:25;;;;;;;;;;;;;;;5.80;80.56;102734.28;5076727;28;19916;-47
2023/03/28 08:50:02;;;;;;;;;;;;;;;5.89;77.99;102735.00;5060694;28;19966;-45
2023/03/28 08:52:29;;;;;;;;;;;;;;;6.01;80.26;102735.09;5069008;28;20367;-48
2023/03/28 08:55:05;;;;;;;;;;;;;;;6.10;79.94;102732.31;5070336;28;19916;-49
2023/03/28 08:57:33;;;;;;;;;;;;;;;6.15;76.53;102731.00;5073041;28;20454;-46
2023/03/28 09:00:07;;;;;;;;;;;;;;;6.19;81.08;102725.38;5069251;28;19938;-49
2023/03/28 09:02:33;;;;;;;;;;;;;;;6.20;77.32;102729.69;5075109;28;19909;-47
2023/03/28 09:04:58;;;;;;;;;;;;;;;6.24;76.83;102731.69;5069513;28;19916;-50
2023/03/28 09:07:46;;;;;;;;;;;;;;;6.22;76.86;102720.47;5073354;28;19959;-48
2023/03/28 09:10:12;;;;;;;;;;;;;;;6.16;74.33;102722.56;5049566;28;19919;-49
2023/03/28 09:12:46;;;;;;;;;;;;;;;6.08;71.77;102721.09;5075049;28;19909;-52
2023/03/28 09:15:16;;;;;;;;;;;;;;;6.04;73.88;102721.63;5070350;28;19916;-50
2023/03/28 09:17:50;;;;;;;;;;;;;;;6.01;72.09;102726.53;5073378;28;19918;-49
2023/03/28 09:20:35;;;;;;;;;;;;;;;5.93;72.05;102718.25;5068643;28;19919;-48
2023/03/28 09:23:00;;;;;;;;;;;;;;;6.11;74.90;102711.09;5076124;28;19915;-48
2023/03/28 09:25:31;;;;;;;;;;;;;;;6.23;73.37;102716.25;5074470;28;19912;-49
2023/03/28 09:27:56;;;;;;;;;;;;;;;6.17;71.24;102719.22;5075499;28;19931;-51
2023/03/28 09:30:24;;;;;;;;;;;;;;;6.16;74.16;102714.91;5070502;28;19912;-48
2023/03/28 09:32:51;;;;;;;;;;;;;;;6.24;70.07;102723.13;5071009;28;19952;-51
2023/03/28 09:35:21;;;;;;;;;;;;;;;6.18;70.60;102715.91;5067765;28;19930;-47
2023/03/28 09:37:59;;;;;;;;;;;;;;;6.21;71.12;102713.59;5069576;28;19974;-48
2023/03/28 09:40:26;;;;;;;;;;;;;;;6.14;68.92;102704.56;5069087;28;19955;-50
2023/03/28 09:42:55;;;;;;;;;;;;;;;6.27;74.34;102701.28;5076109;28;20098;-53
2023/03/28 09:45:31;;;;;;;;;;;;;;;6.40;72.62;102706.50;5068335;28;19935;-50
2023/03/28 09:47:56;;;;;;;;;;;;;;;6.43;69.85;102698.16;5076303;28;19955;-53
2023/03/28 09:50:22;;;;;;;;;;;;;;;6.41;71.18;102694.63;5068573;28;20042;-47
2023/03/28 09:52:48;;;;;;;;;;;;;;;6.54;70.83;102688.75;5067339;28;20394;-48
2023/03/28 09:55:18;;;;;;;;;;;;;;;6.56;72.27;102688.09;5071368;28;19919;-49
2023/03/28 09:58:02;;;;;;;;;;;;;;;6.63;70.67;102682.66;5069186;28;19920;-48
2023/03/28 10:00:28;;;;;;;;;;;;;;;6.67;72.82;102673.53;5068899;28;19908;-48
2023/03/28 10:02:53;;;;;;;;;;;;;;;6.75;72.48;102682.66;5051992;28;19939;-48
2023/03/28 10:05:28;;;;;;;;;;;;;;;6.77;70.97;102677.66;5068715;28;20362;-51
2023/03/28 10:07:56;;;;;;;;;;;;;;;6.85;71.15;102677.41;5069766;28;19931;-48
2023/03/28 10:10:23;;;;;;;;;;;;;;;6.96;64.99;102673.06;5074182;28;19966;-50
2023/03/28 10:12:54;;;;;;;;;;;;;;;6.90;68.64;102657.28;5069504;28;20282;-50
2023/03/28 10:15:29;;;;;;;;;;;;;;;6.97;70.36;102655.25;5077373;28;19912;-49
2023/03/28 10:17:54;;;;;;;;;;;;;;;7.06;63.39;102656.72;5072913;28;19912;-52
2023/03/28 10:20:20;;;;;;;;;;;;;;;6.96;61.48;102650.94;5075979;28;20014;-49
2023/03/28 10:22:48;;;;;;;;;;;;;;;6.85;62.00;102649.28;5075407;28;20293;-48
2023/03/28 10:25:21;;;;;;;;;;;;;;;6.76;65.36;102642.63;5071466;28;20412;-48
2023/03/28 10:27:47;;;;;;;;;;;;;;;6.79;62.83;102651.41;5075147;28;20276;-51
2023/03/28 10:30:12;;;;;;;;;;;;;;;6.68;64.19;102655.75;5076941;28;19920;-50
2023/03/28 10:32:38;;;;;;;;;;;;;;;6.74;65.84;102645.09;5075395;28;20601;-49
2023/03/28 10:35:14;;;;;;;;;;;;;;;6.92;60.24;102641.28;5071261;28;20370;-52
2023/03/28 10:37:40;;;;;;;;;;;;;;;6.98;63.45;102636.63;5071966;28;19995;-48
2023/03/28 10:40:26;;;;;;;;;;;;;;;7.06;61.95;102628.59;5072600;28;20286;-51
2023/03/28 10:42:52;;;;;;;;;;;;;;;6.99;61.98;102628.16;5073497;28;19965;-50
2023/03/28 10:45:37;;;;;;;;;;;;;;;6.99;61.75;102620.47;5071032;28;20705;-52
2023/03/28 10:48:23;;;;;;;;;;;;;;;7.03;61.83;102618.13;5071200;28;19920;-51
2023/03/28 10:50:53;;;;;;;;;;;;;;;7.18;63.33;102621.78;5073517;28;19990;-51
2023/03/28 10:53:28;;;;;;;;;;;;;;;7.25;62.18;102606.94;5071461;28;19931;-48
2023/03/28 10:55:53;;;;;;;;;;;;;;;7.44;60.62;102614.22;5070814;28;19919;-50
2023/03/28 10:58:36;;;;;;;;;;;;;;;7.72;60.98;102605.84;5074509;28;20222;-51
2023/03/28 11:01:10;;;;;;;;;;;;;;;8.00;60.38;102604.31;5076070;28;19912;-52
2023/03/28 11:03:36;;;;;;;;;;;;;;;8.00;59.69;102599.19;5074813;28;19916;-52
2023/03/28 11:06:05;;;;;;;;;;;;;;;8.00;62.20;102598.31;5074330;28;19935;-48
2023/03/28 11:08:50;;;;;;;;;;;;;;;8.06;60.63;102599.59;5071867;28;19917;-53
2023/03/28 11:11:41;;;;;;;;;;;;;;;8.16;59.39;102588.28;5075851;28;19912;-52
2023/03/28 11:14:09;;;;;;;;;;;;;;;8.24;58.25;102579.41;5076621;28;19916;-52
2023/03/28 11:16:53;;;;;;;;;;;;;;;8.28;56.43;102565.16;5078230;28;20337;-48
2023/03/28 11:19:43;;;;;;;;;;;;;;;8.36;60.26;102563.09;5074989;28;19924;-52
2023/03/28 11:22:12;;;;;;;;;;;;;;;8.42;60.54;102558.34;5074059;28;19916;-49
2023/03/28 11:25:00;;;;;;;;;;;;;;;8.65;60.39;102555.56;5078410;28;19927;-51
2023/03/28 11:27:38;;;;;;;;;;;;;;;8.83;57.36;102549.03;5071738;28;19916;-48
2023/03/28 11:30:36;;;;;;;;;;;;;;;8.90;56.64;102550.28;5068868;28;19916;-49
2023/03/28 11:33:04;;;;;;;;;;;;;;;9.03;56.53;102546.78;5033200;28;19935;-49
2023/03/28 11:35:55;;;;;;;;;;;;;;;8.97;56.11;102533.59;5080830;28;20617;-52
2023/03/28 11:38:26;;;;;;;;;;;;;;;9.06;55.11;102542.75;5043468;28;19916;-49
2023/03/28 11:40:57;;;;;;;;;;;;;;;9.06;51.66;102537.63;5077358;28;19912;-50
2023/03/28 11:43:41;;;;;;;;;;;;;;;8.97;50.41;102546.41;5077791;28;19912;-50
2023/03/28 11:46:10;;;;;;;;;;;;;;;9.05;56.20;102530.72;5071567;28;19923;-48
2023/03/28 11:48:50;;;;;;;;;;;;;;;9.19;51.05;102533.22;5077190;28;20436;-48
2023/03/28 11:51:19;;;;;;;;;;;;;;;9.04;51.90;102513.56;5070690;28;19924;-51
2023/03/28 11:53:50;;;;;;;;;;;;;;;9.22;53.20;102508.66;5075115;28;19912;-51
2023/03/28 11:56:18;;;;;;;;;;;;;;;9.23;52.72;102500.13;5073817;28;19942;-50
2023/03/28 11:58:47;;;;;;;;;;;;;;;9.38;51.70;102484.75;5073686;28;19912;-49
2023/03/28 12:01:31;;;;;;;;;;;;;;;9.40;53.36;102480.56;5072353;28;20297;-51
2023/03/28 12:04:05;;;;;;;;;;;;;;;9.53;52.99;102472.81;5069804;28;20367;-51
2023/03/28 12:06:31;;;;;;;;;;;;;;;9.64;51.47;102473.41;5068718;28;19969;-49
2023/03/28 12:08:56;;;;;;;;;;;;;;;9.81;51.88;102474.38;5073137;28;19912;-48
2023/03/28 12:11:28;;;;;;;;;;;;;;;9.70;51.36;102470.31;5073987;28;19970;-53
2023/03/28 12:13:57;;;;;;;;;;;;;;;9.58;50.51;102463.66;5072953;28;19926;-48
2023/03/28 12:16:37;;;;;;;;;;;;;;;9.53;50.67;102462.53;5072146;28;20356;-50
2023/03/28 12:19:05;;;;;;;;;;;;;;;9.54;52.13;102460.84;5052043;28;19916;-48
2023/03/28 12:21:32;;;;;;;;;;;;;;;9.55;48.48;102457.50;5069542;28;20264;-50
2023/03/28 12:23:58;;;;;;;;;;;;;;;9.49;50.57;102452.88;5070602;28;20575;-52
2023/03/28 12:26:27;;;;;;;;;;;;;;;9.57;50.61;102440.47;5070888;28;19920;-50
2023/03/28 12:28:55;;;;;;;;;;;;;;;9.72;53.58;102432.78;5073335;28;19912;-49
2023/03/28 12:31:30;;;;;;;;;;;;;;;9.80;49.35;102431.50;5068480;28;19912;-47
2023/03/28 12:34:13;;;;;;;;;;;;;;;9.73;50.69;102424.25;5052159;28;20279;-49
2023/03/28 12:36:50;;;;;;;;;;;;;;;9.70;50.98;102429.22;5071439;28;20401;-48
2023/03/28 12:39:21;;;;;;;;;;;;;;;9.73;48.54;102416.56;5071168;28;19962;-52
2023/03/28 12:41:47;;;;;;;;;;;;;;;9.78;47.08;102427.97;5072652;28;20007;-49
2023/03/28 12:44:14;;;;;;;;;;;;;;;9.71;46.08;102429.31;5070494;28;20015;-52
2023/03/28 12:46:45;;;;;;;;;;;;;;;9.67;48.32;102423.13;5069547;28;19920;-48